sensor_id;sensor_type;location;lat;lon;timestamp;temperature;humidity
68354;DHT22;55274;43.060;25.618;2023-08-31T00:00:11;22.00;99.90
68354;DHT22;55274;43.060;25.618;2023-08-31T00:02:39;22.00;99.90
68354;DHT22;55274;43.060;25.618;2023-08-31T00:05:06;22.00;99.90
68354;DHT22;55274;43.060;25.618;2023-08-31T00:07:32;21.90;99.90
68354;DHT22;55274;43.060;25.618;2023-08-31T00:09:58;21.90;99.90
68354;DHT22;55274;43.060;25.618;2023-08-31T00:12:24;21.90;99.90
68354;DHT22;55274;43.060;25.618;2023-08-31T00:14:50;21.80;99.90
68354;DHT22;55274;43.060;25.618;2023-08-31T00:17:16;21.80;99.90
68354;DHT22;55274;43.060;25.618;2023-08-31T00:19:43;21.80;99.90
68354;DHT22;55274;43.060;25.618;2023-08-31T00:22:09;21.90;99.90
68354;DHT22;55274;43.060;25.618;2023-08-31T00:24:34;21.90;99.90
68354;DHT22;55274;43.060;25.618;2023-08-31T00:27:03;21.90;99.90
68354;DHT22;55274;43.060;25.618;2023-08-31T00:29:29;21.80;99.90
68354;DHT22;55274;43.060;25.618;2023-08-31T00:31:56;21.80;99.90
68354;DHT22;55274;43.060;25.618;2023-08-31T00:34:22;21.80;99.90
68354;DHT22;55274;43.060;25.618;2023-08-31T00:36:48;21.80;99.90
68354;DHT22;55274;43.060;25.618;2023-08-31T00:39:14;21.90;99.90
68354;DHT22;55274;43.060;25.618;2023-08-31T00:41:40;21.90;99.90
68354;DHT22;55274;43.060;25.618;2023-08-31T00:44:06;21.90;99.90
68354;DHT22;55274;43.060;25.618;2023-08-31T00:46:33;21.90;99.90
68354;DHT22;55274;43.060;25.618;2023-08-31T00:49:00;21.90;99.90
68354;DHT22;55274;43.060;25.618;2023-08-31T00:51:26;21.90;99.90
68354;DHT22;55274;43.060;25.618;2023-08-31T00:53:52;21.90;99.90
68354;DHT22;55274;43.060;25.618;2023-08-31T00:56:21;21.90;99.90
68354;DHT22;55274;43.060;25.618;2023-08-31T00:58:47;21.80;99.90
68354;DHT22;55274;43.060;25.618;2023-08-31T01:09:57;21.70;99.90
68354;DHT22;55274;43.060;25.618;2023-08-31T01:15:11;21.60;99.90
68354;DHT22;55274;43.060;25.618;2023-08-31T01:17:40;21.60;99.90
68354;DHT22;55274;43.060;25.618;2023-08-31T01:20:11;21.60;99.90
68354;DHT22;55274;43.060;25.618;2023-08-31T01:22:55;21.60;99.90
68354;DHT22;55274;43.060;25.618;2023-08-31T01:25:21;21.50;99.90
68354;DHT22;55274;43.060;25.618;2023-08-31T01:27:47;21.50;99.90
68354;DHT22;55274;43.060;25.618;2023-08-31T01:30:13;21.50;99.90
68354;DHT22;55274;43.060;25.618;2023-08-31T01:32:44;21.60;99.90
68354;DHT22;55274;43.060;25.618;2023-08-31T01:35:11;21.60;99.90
68354;DHT22;55274;43.060;25.618;2023-08-31T01:37:50;21.60;99.90
68354;DHT22;55274;43.060;25.618;2023-08-31T01:43:04;21.40;99.90
68354;DHT22;55274;43.060;25.618;2023-08-31T01:45:32;21.40;99.90
68354;DHT22;55274;43.060;25.618;2023-08-31T01:48:06;21.40;99.90
68354;DHT22;55274;43.060;25.618;2023-08-31T01:50:32;21.40;99.90
68354;DHT22;55274;43.060;25.618;2023-08-31T01:52:57;21.30;99.90
68354;DHT22;55274;43.060;25.618;2023-08-31T01:55:24;21.30;99.90
68354;DHT22;55274;43.060;25.618;2023-08-31T01:57:50;21.30;99.90
68354;DHT22;55274;43.060;25.618;2023-08-31T02:00:17;21.30;99.90
68354;DHT22;55274;43.060;25.618;2023-08-31T02:02:44;21.30;99.90
68354;DHT22;55274;43.060;25.618;2023-08-31T02:05:10;21.30;99.90
68354;DHT22;55274;43.060;25.618;2023-08-31T02:07:36;21.20;99.90
68354;DHT22;55274;43.060;25.618;2023-08-31T02:10:02;21.20;99.90
68354;DHT22;55274;43.060;25.618;2023-08-31T02:12:28;21.20;99.90
68354;DHT22;55274;43.060;25.618;2023-08-31T02:14:54;21.20;99.90
68354;DHT22;55274;43.060;25.618;2023-08-31T02:17:21;21.20;99.90
68354;DHT22;55274;43.060;25.618;2023-08-31T02:19:46;21.20;99.90
68354;DHT22;55274;43.060;25.618;2023-08-31T02:22:12;21.20;99.90
68354;DHT22;55274;43.060;25.618;2023-08-31T02:24:38;21.10;99.90
68354;DHT22;55274;43.060;25.618;2023-08-31T02:27:04;21.10;99.90
68354;DHT22;55274;43.060;25.618;2023-08-31T02:29:29;21.10;99.90
68354;DHT22;55274;43.060;25.618;2023-08-31T02:31:55;21.10;99.90
68354;DHT22;55274;43.060;25.618;2023-08-31T02:34:21;21.10;99.90
68354;DHT22;55274;43.060;25.618;2023-08-31T02:36:47;21.00;99.90
68354;DHT22;55274;43.060;25.618;2023-08-31T02:39:12;20.90;99.90
68354;DHT22;55274;43.060;25.618;2023-08-31T02:41:38;20.90;99.90
68354;DHT22;55274;43.060;25.618;2023-08-31T02:44:05;20.90;99.90
68354;DHT22;55274;43.060;25.618;2023-08-31T02:46:31;20.90;99.90
68354;DHT22;55274;43.060;25.618;2023-08-31T02:48:56;20.90;99.90
68354;DHT22;55274;43.060;25.618;2023-08-31T02:51:22;20.90;99.90
68354;DHT22;55274;43.060;25.618;2023-08-31T02:53:48;20.90;99.90
68354;DHT22;55274;43.060;25.618;2023-08-31T02:56:14;20.80;99.90
68354;DHT22;55274;43.060;25.618;2023-08-31T02:58:40;20.90;99.90
68354;DHT22;55274;43.060;25.618;2023-08-31T03:01:10;20.90;99.90
68354;DHT22;55274;43.060;25.618;2023-08-31T03:03:39;20.90;99.90
68354;DHT22;55274;43.060;25.618;2023-08-31T03:06:09;20.90;99.90
68354;DHT22;55274;43.060;25.618;2023-08-31T03:08:36;20.90;99.90
68354;DHT22;55274;43.060;25.618;2023-08-31T03:11:08;20.80;99.90
68354;DHT22;55274;43.060;25.618;2023-08-31T03:13:34;20.80;99.90
68354;DHT22;55274;43.060;25.618;2023-08-31T03:16:00;20.80;99.90
68354;DHT22;55274;43.060;25.618;2023-08-31T03:18:26;20.80;99.90
68354;DHT22;55274;43.060;25.618;2023-08-31T03:20:54;20.70;99.90
68354;DHT22;55274;43.060;25.618;2023-08-31T03:23:19;20.70;99.90
68354;DHT22;55274;43.060;25.618;2023-08-31T03:25:45;20.80;99.90
68354;DHT22;55274;43.060;25.618;2023-08-31T03:28:11;20.80;99.90
68354;DHT22;55274;43.060;25.618;2023-08-31T03:30:37;20.80;99.90
68354;DHT22;55274;43.060;25.618;2023-08-31T03:33:03;20.80;99.90
68354;DHT22;55274;43.060;25.618;2023-08-31T03:35:31;20.70;99.90
68354;DHT22;55274;43.060;25.618;2023-08-31T03:37:56;20.70;99.90
68354;DHT22;55274;43.060;25.618;2023-08-31T03:40:22;20.70;99.90
68354;DHT22;55274;43.060;25.618;2023-08-31T03:42:49;20.70;99.90
68354;DHT22;55274;43.060;25.618;2023-08-31T03:45:15;20.80;99.90
68354;DHT22;55274;43.060;25.618;2023-08-31T03:47:41;20.70;99.90
68354;DHT22;55274;43.060;25.618;2023-08-31T03:50:07;20.80;99.90
68354;DHT22;55274;43.060;25.618;2023-08-31T03:52:34;20.70;99.90
68354;DHT22;55274;43.060;25.618;2023-08-31T03:55:00;20.70;99.90
68354;DHT22;55274;43.060;25.618;2023-08-31T03:57:26;20.70;99.90
68354;DHT22;55274;43.060;25.618;2023-08-31T03:59:52;20.60;99.90
68354;DHT22;55274;43.060;25.618;2023-08-31T04:02:17;20.70;99.90
68354;DHT22;55274;43.060;25.618;2023-08-31T04:04:43;20.60;99.90
68354;DHT22;55274;43.060;25.618;2023-08-31T04:07:09;20.60;99.90
68354;DHT22;55274;43.060;25.618;2023-08-31T04:09:35;20.60;99.90
68354;DHT22;55274;43.060;25.618;2023-08-31T04:12:00;20.60;99.90
68354;DHT22;55274;43.060;25.618;2023-08-31T04:14:26;20.70;99.90
68354;DHT22;55274;43.060;25.618;2023-08-31T04:16:56;20.70;99.90
68354;DHT22;55274;43.060;25.618;2023-08-31T04:19:22;20.70;99.90
68354;DHT22;55274;43.060;25.618;2023-08-31T04:21:48;20.80;99.90
68354;DHT22;55274;43.060;25.618;2023-08-31T04:24:14;20.80;99.90
68354;DHT22;55274;43.060;25.618;2023-08-31T04:26:39;20.90;99.90
68354;DHT22;55274;43.060;25.618;2023-08-31T04:29:05;20.90;99.90
68354;DHT22;55274;43.060;25.618;2023-08-31T04:31:32;20.90;99.90
68354;DHT22;55274;43.060;25.618;2023-08-31T04:33:58;21.00;99.90
68354;DHT22;55274;43.060;25.618;2023-08-31T04:36:24;21.00;99.90
68354;DHT22;55274;43.060;25.618;2023-08-31T04:38:51;21.10;99.90
68354;DHT22;55274;43.060;25.618;2023-08-31T04:41:18;21.20;99.90
68354;DHT22;55274;43.060;25.618;2023-08-31T04:43:44;21.30;99.90
68354;DHT22;55274;43.060;25.618;2023-08-31T04:46:10;21.30;99.90
68354;DHT22;55274;43.060;25.618;2023-08-31T04:48:36;21.40;99.90
68354;DHT22;55274;43.060;25.618;2023-08-31T04:51:02;21.50;99.90
68354;DHT22;55274;43.060;25.618;2023-08-31T04:53:29;21.50;99.90
68354;DHT22;55274;43.060;25.618;2023-08-31T04:55:58;21.60;99.90
68354;DHT22;55274;43.060;25.618;2023-08-31T04:58:24;21.60;99.90
68354;DHT22;55274;43.060;25.618;2023-08-31T05:00:52;21.70;99.90
68354;DHT22;55274;43.060;25.618;2023-08-31T05:03:18;21.80;99.90
68354;DHT22;55274;43.060;25.618;2023-08-31T05:05:43;21.90;99.90
68354;DHT22;55274;43.060;25.618;2023-08-31T05:08:09;21.90;99.90
68354;DHT22;55274;43.060;25.618;2023-08-31T05:10:35;22.30;99.90
68354;DHT22;55274;43.060;25.618;2023-08-31T05:13:01;22.90;99.90
68354;DHT22;55274;43.060;25.618;2023-08-31T05:15:27;23.60;99.90
68354;DHT22;55274;43.060;25.618;2023-08-31T05:17:54;24.40;99.90
68354;DHT22;55274;43.060;25.618;2023-08-31T05:20:20;24.80;99.90
68354;DHT22;55274;43.060;25.618;2023-08-31T05:22:48;24.80;99.90
68354;DHT22;55274;43.060;25.618;2023-08-31T05:25:14;25.10;98.40
68354;DHT22;55274;43.060;25.618;2023-08-31T05:27:39;25.60;95.60
68354;DHT22;55274;43.060;25.618;2023-08-31T05:30:06;26.00;95.10
68354;DHT22;55274;43.060;25.618;2023-08-31T05:32:32;26.50;91.90
68354;DHT22;55274;43.060;25.618;2023-08-31T05:34:58;26.70;88.70
68354;DHT22;55274;43.060;25.618;2023-08-31T05:37:25;26.70;90.40
68354;DHT22;55274;43.060;25.618;2023-08-31T05:39:51;26.90;89.70
68354;DHT22;55274;43.060;25.618;2023-08-31T05:42:17;27.30;89.70
68354;DHT22;55274;43.060;25.618;2023-08-31T05:44:43;27.50;87.50
68354;DHT22;55274;43.060;25.618;2023-08-31T05:47:09;27.70;86.00
68354;DHT22;55274;43.060;25.618;2023-08-31T05:49:35;27.70;84.80
68354;DHT22;55274;43.060;25.618;2023-08-31T05:52:01;27.90;83.20
68354;DHT22;55274;43.060;25.618;2023-08-31T05:54:27;28.20;83.80
68354;DHT22;55274;43.060;25.618;2023-08-31T05:56:53;28.50;82.10
68354;DHT22;55274;43.060;25.618;2023-08-31T05:59:21;29.00;81.70
68354;DHT22;55274;43.060;25.618;2023-08-31T06:01:47;29.30;78.50
68354;DHT22;55274;43.060;25.618;2023-08-31T06:04:14;29.50;77.50
68354;DHT22;55274;43.060;25.618;2023-08-31T06:06:40;29.50;75.30
68354;DHT22;55274;43.060;25.618;2023-08-31T06:09:06;29.00;77.60
68354;DHT22;55274;43.060;25.618;2023-08-31T06:11:32;29.00;77.00
68354;DHT22;55274;43.060;25.618;2023-08-31T06:13:58;29.00;76.80
68354;DHT22;55274;43.060;25.618;2023-08-31T06:16:39;29.20;77.60
68354;DHT22;55274;43.060;25.618;2023-08-31T06:19:05;29.80;75.30
68354;DHT22;55274;43.060;25.618;2023-08-31T06:21:31;30.10;74.90
68354;DHT22;55274;43.060;25.618;2023-08-31T06:23:57;30.30;74.50
68354;DHT22;55274;43.060;25.618;2023-08-31T06:26:23;30.20;73.90
68354;DHT22;55274;43.060;25.618;2023-08-31T06:28:49;30.70;73.30
68354;DHT22;55274;43.060;25.618;2023-08-31T06:31:38;30.90;72.10
68354;DHT22;55274;43.060;25.618;2023-08-31T06:34:04;30.70;71.80
68354;DHT22;55274;43.060;25.618;2023-08-31T06:36:30;30.90;72.60
68354;DHT22;55274;43.060;25.618;2023-08-31T06:38:56;31.00;70.90
68354;DHT22;55274;43.060;25.618;2023-08-31T06:41:23;31.10;70.80
68354;DHT22;55274;43.060;25.618;2023-08-31T06:43:50;31.10;71.70
68354;DHT22;55274;43.060;25.618;2023-08-31T06:46:16;30.90;70.90
68354;DHT22;55274;43.060;25.618;2023-08-31T06:48:42;30.60;72.30
68354;DHT22;55274;43.060;25.618;2023-08-31T06:51:08;30.60;72.20
68354;DHT22;55274;43.060;25.618;2023-08-31T06:53:33;30.50;72.10
68354;DHT22;55274;43.060;25.618;2023-08-31T06:55:59;30.40;71.90
68354;DHT22;55274;43.060;25.618;2023-08-31T06:58:25;30.20;72.70
68354;DHT22;55274;43.060;25.618;2023-08-31T07:00:51;30.40;72.40
68354;DHT22;55274;43.060;25.618;2023-08-31T07:03:16;30.40;71.80
68354;DHT22;55274;43.060;25.618;2023-08-31T07:05:43;30.50;71.20
68354;DHT22;55274;43.060;25.618;2023-08-31T07:08:09;30.50;69.90
68354;DHT22;55274;43.060;25.618;2023-08-31T07:10:35;30.50;69.90
68354;DHT22;55274;43.060;25.618;2023-08-31T07:13:03;30.60;70.40
68354;DHT22;55274;43.060;25.618;2023-08-31T07:15:29;30.70;69.60
68354;DHT22;55274;43.060;25.618;2023-08-31T07:17:55;30.80;68.30
68354;DHT22;55274;43.060;25.618;2023-08-31T07:20:21;30.60;69.10
68354;DHT22;55274;43.060;25.618;2023-08-31T07:22:47;30.10;70.50
68354;DHT22;55274;43.060;25.618;2023-08-31T07:25:13;29.90;71.70
68354;DHT22;55274;43.060;25.618;2023-08-31T07:27:39;29.60;71.60
68354;DHT22;55274;43.060;25.618;2023-08-31T07:30:05;29.60;72.80
68354;DHT22;55274;43.060;25.618;2023-08-31T07:32:32;29.90;72.30
68354;DHT22;55274;43.060;25.618;2023-08-31T07:34:58;30.20;71.30
68354;DHT22;55274;43.060;25.618;2023-08-31T07:37:24;30.50;69.70
68354;DHT22;55274;43.060;25.618;2023-08-31T07:39:49;30.90;68.00
68354;DHT22;55274;43.060;25.618;2023-08-31T07:42:16;31.10;66.10
68354;DHT22;55274;43.060;25.618;2023-08-31T07:44:42;31.40;64.90
68354;DHT22;55274;43.060;25.618;2023-08-31T07:47:09;31.70;64.60
68354;DHT22;55274;43.060;25.618;2023-08-31T07:49:35;31.90;62.80
68354;DHT22;55274;43.060;25.618;2023-08-31T07:52:01;31.50;61.60
68354;DHT22;55274;43.060;25.618;2023-08-31T07:54:28;31.40;61.50
68354;DHT22;55274;43.060;25.618;2023-08-31T07:56:54;31.40;62.10
68354;DHT22;55274;43.060;25.618;2023-08-31T07:59:20;31.30;61.30
68354;DHT22;55274;43.060;25.618;2023-08-31T08:01:47;31.40;61.60
68354;DHT22;55274;43.060;25.618;2023-08-31T08:04:13;31.70;59.30
68354;DHT22;55274;43.060;25.618;2023-08-31T08:06:39;31.90;57.50
68354;DHT22;55274;43.060;25.618;2023-08-31T08:09:05;32.10;56.60
68354;DHT22;55274;43.060;25.618;2023-08-31T08:11:31;32.50;56.40
68354;DHT22;55274;43.060;25.618;2023-08-31T08:13:57;32.90;54.80
68354;DHT22;55274;43.060;25.618;2023-08-31T08:16:23;33.10;55.60
68354;DHT22;55274;43.060;25.618;2023-08-31T08:18:49;33.10;53.70
68354;DHT22;55274;43.060;25.618;2023-08-31T08:21:20;33.00;55.00
68354;DHT22;55274;43.060;25.618;2023-08-31T08:23:46;32.70;53.90
68354;DHT22;55274;43.060;25.618;2023-08-31T08:26:12;32.30;54.30
68354;DHT22;55274;43.060;25.618;2023-08-31T08:28:38;31.90;54.20
68354;DHT22;55274;43.060;25.618;2023-08-31T08:31:04;31.80;55.00
68354;DHT22;55274;43.060;25.618;2023-08-31T08:33:30;31.60;56.20
68354;DHT22;55274;43.060;25.618;2023-08-31T08:35:57;31.50;55.20
68354;DHT22;55274;43.060;25.618;2023-08-31T08:38:23;31.30;54.40
68354;DHT22;55274;43.060;25.618;2023-08-31T08:40:49;31.20;54.90
68354;DHT22;55274;43.060;25.618;2023-08-31T08:43:14;31.20;54.90
68354;DHT22;55274;43.060;25.618;2023-08-31T08:45:40;31.30;55.70
68354;DHT22;55274;43.060;25.618;2023-08-31T08:48:08;31.50;55.10
68354;DHT22;55274;43.060;25.618;2023-08-31T08:50:35;31.30;54.00
68354;DHT22;55274;43.060;25.618;2023-08-31T08:53:05;31.20;54.40
68354;DHT22;55274;43.060;25.618;2023-08-31T08:55:33;31.10;54.90
68354;DHT22;55274;43.060;25.618;2023-08-31T08:57:59;31.00;55.20
68354;DHT22;55274;43.060;25.618;2023-08-31T09:00:26;30.90;53.00
68354;DHT22;55274;43.060;25.618;2023-08-31T09:02:53;30.80;54.20
68354;DHT22;55274;43.060;25.618;2023-08-31T09:05:19;30.80;53.30
68354;DHT22;55274;43.060;25.618;2023-08-31T09:10:34;32.20;52.00
68354;DHT22;55274;43.060;25.618;2023-08-31T09:13:01;32.80;49.80
68354;DHT22;55274;43.060;25.618;2023-08-31T09:15:45;32.90;48.70
68354;DHT22;55274;43.060;25.618;2023-08-31T09:18:30;33.30;49.30
68354;DHT22;55274;43.060;25.618;2023-08-31T09:21:00;33.90;47.90
68354;DHT22;55274;43.060;25.618;2023-08-31T09:23:26;33.90;47.90
68354;DHT22;55274;43.060;25.618;2023-08-31T09:25:54;34.20;47.90
68354;DHT22;55274;43.060;25.618;2023-08-31T09:28:25;34.00;46.70
68354;DHT22;55274;43.060;25.618;2023-08-31T09:30:53;34.40;46.30
68354;DHT22;55274;43.060;25.618;2023-08-31T09:33:27;33.90;44.90
68354;DHT22;55274;43.060;25.618;2023-08-31T09:35:57;33.20;47.20
68354;DHT22;55274;43.060;25.618;2023-08-31T09:38:23;33.20;49.00
68354;DHT22;55274;43.060;25.618;2023-08-31T09:40:48;33.30;49.40
68354;DHT22;55274;43.060;25.618;2023-08-31T09:43:22;32.90;48.50
68354;DHT22;55274;43.060;25.618;2023-08-31T09:45:49;32.40;49.10
68354;DHT22;55274;43.060;25.618;2023-08-31T09:48:16;32.30;50.30
68354;DHT22;55274;43.060;25.618;2023-08-31T09:50:46;32.20;50.50
68354;DHT22;55274;43.060;25.618;2023-08-31T09:53:16;32.60;49.10
68354;DHT22;55274;43.060;25.618;2023-08-31T09:55:43;32.90;50.10
68354;DHT22;55274;43.060;25.618;2023-08-31T09:58:09;33.10;48.70
68354;DHT22;55274;43.060;25.618;2023-08-31T10:00:36;33.10;49.70
68354;DHT22;55274;43.060;25.618;2023-08-31T10:03:04;33.40;49.40
68354;DHT22;55274;43.060;25.618;2023-08-31T10:05:31;33.70;47.40
68354;DHT22;55274;43.060;25.618;2023-08-31T10:08:00;34.00;47.00
68354;DHT22;55274;43.060;25.618;2023-08-31T10:10:28;34.20;47.90
68354;DHT22;55274;43.060;25.618;2023-08-31T10:12:56;34.60;46.20
68354;DHT22;55274;43.060;25.618;2023-08-31T10:15:23;34.30;45.80
68354;DHT22;55274;43.060;25.618;2023-08-31T10:17:49;34.70;45.00
68354;DHT22;55274;43.060;25.618;2023-08-31T10:20:16;34.60;46.40
68354;DHT22;55274;43.060;25.618;2023-08-31T10:22:43;34.00;46.50
68354;DHT22;55274;43.060;25.618;2023-08-31T10:25:10;34.30;47.10
68354;DHT22;55274;43.060;25.618;2023-08-31T10:27:42;34.60;46.30
68354;DHT22;55274;43.060;25.618;2023-08-31T10:38:22;33.60;48.80
68354;DHT22;55274;43.060;25.618;2023-08-31T10:43:48;33.60;46.80
68354;DHT22;55274;43.060;25.618;2023-08-31T10:46:17;33.30;48.90
68354;DHT22;55274;43.060;25.618;2023-08-31T10:51:45;32.30;48.70
68354;DHT22;55274;43.060;25.618;2023-08-31T10:54:30;32.60;49.20
68354;DHT22;55274;43.060;25.618;2023-08-31T10:59:44;32.00;50.60
68354;DHT22;55274;43.060;25.618;2023-08-31T11:02:11;31.70;50.60
68354;DHT22;55274;43.060;25.618;2023-08-31T11:07:27;31.50;53.80
68354;DHT22;55274;43.060;25.618;2023-08-31T11:10:19;31.30;54.90
68354;DHT22;55274;43.060;25.618;2023-08-31T11:12:47;31.10;56.50
68354;DHT22;55274;43.060;25.618;2023-08-31T11:15:17;30.90;55.50
68354;DHT22;55274;43.060;25.618;2023-08-31T11:17:44;30.70;56.50
68354;DHT22;55274;43.060;25.618;2023-08-31T11:20:20;30.40;57.40
68354;DHT22;55274;43.060;25.618;2023-08-31T11:22:50;30.10;58.60
68354;DHT22;55274;43.060;25.618;2023-08-31T11:25:18;29.90;58.60
68354;DHT22;55274;43.060;25.618;2023-08-31T11:27:58;29.50;58.90
68354;DHT22;55274;43.060;25.618;2023-08-31T11:30:26;29.20;59.90
68354;DHT22;55274;43.060;25.618;2023-08-31T11:32:52;28.90;60.10
68354;DHT22;55274;43.060;25.618;2023-08-31T11:35:22;28.80;60.90
68354;DHT22;55274;43.060;25.618;2023-08-31T11:37:51;28.80;60.70
68354;DHT22;55274;43.060;25.618;2023-08-31T11:40:18;28.70;65.20
68354;DHT22;55274;43.060;25.618;2023-08-31T11:42:44;28.60;65.90
68354;DHT22;55274;43.060;25.618;2023-08-31T11:45:11;28.60;67.20
68354;DHT22;55274;43.060;25.618;2023-08-31T11:47:38;28.50;67.20
68354;DHT22;55274;43.060;25.618;2023-08-31T11:50:06;28.50;66.80
68354;DHT22;55274;43.060;25.618;2023-08-31T11:52:32;28.40;68.30
68354;DHT22;55274;43.060;25.618;2023-08-31T11:54:58;28.30;67.90
68354;DHT22;55274;43.060;25.618;2023-08-31T11:57:27;28.30;67.20
68354;DHT22;55274;43.060;25.618;2023-08-31T11:59:56;28.30;69.00
68354;DHT22;55274;43.060;25.618;2023-08-31T12:02:22;28.20;67.60
68354;DHT22;55274;43.060;25.618;2023-08-31T12:04:48;28.30;67.30
68354;DHT22;55274;43.060;25.618;2023-08-31T12:07:18;28.20;65.70
68354;DHT22;55274;43.060;25.618;2023-08-31T12:09:45;28.40;66.60
68354;DHT22;55274;43.060;25.618;2023-08-31T12:12:13;28.40;68.60
68354;DHT22;55274;43.060;25.618;2023-08-31T12:14:40;28.40;68.10
68354;DHT22;55274;43.060;25.618;2023-08-31T12:17:07;28.50;68.20
68354;DHT22;55274;43.060;25.618;2023-08-31T12:19:37;28.60;67.90
68354;DHT22;55274;43.060;25.618;2023-08-31T12:22:04;28.60;66.40
68354;DHT22;55274;43.060;25.618;2023-08-31T12:24:37;28.80;66.40
68354;DHT22;55274;43.060;25.618;2023-08-31T12:27:03;29.20;66.10
68354;DHT22;55274;43.060;25.618;2023-08-31T12:29:30;29.50;65.00
68354;DHT22;55274;43.060;25.618;2023-08-31T12:31:56;29.70;63.90
68354;DHT22;55274;43.060;25.618;2023-08-31T12:34:23;29.60;60.30
68354;DHT22;55274;43.060;25.618;2023-08-31T12:36:49;29.50;60.00
68354;DHT22;55274;43.060;25.618;2023-08-31T12:39:14;29.50;59.60
68354;DHT22;55274;43.060;25.618;2023-08-31T12:41:40;29.40;59.80
68354;DHT22;55274;43.060;25.618;2023-08-31T12:44:07;29.60;59.60
68354;DHT22;55274;43.060;25.618;2023-08-31T12:46:33;29.90;59.80
68354;DHT22;55274;43.060;25.618;2023-08-31T12:49:00;30.30;60.00
68354;DHT22;55274;43.060;25.618;2023-08-31T12:51:28;30.30;59.40
68354;DHT22;55274;43.060;25.618;2023-08-31T12:53:53;30.10;59.80
68354;DHT22;55274;43.060;25.618;2023-08-31T12:56:19;30.10;60.00
68354;DHT22;55274;43.060;25.618;2023-08-31T12:58:51;30.00;60.40
68354;DHT22;55274;43.060;25.618;2023-08-31T13:01:18;29.90;60.50
68354;DHT22;55274;43.060;25.618;2023-08-31T13:03:45;29.80;60.80
68354;DHT22;55274;43.060;25.618;2023-08-31T13:06:11;29.90;60.40
68354;DHT22;55274;43.060;25.618;2023-08-31T13:08:37;30.00;61.20
68354;DHT22;55274;43.060;25.618;2023-08-31T13:11:03;30.00;60.90
68354;DHT22;55274;43.060;25.618;2023-08-31T13:13:31;30.00;61.20
68354;DHT22;55274;43.060;25.618;2023-08-31T13:15:59;29.90;61.80
68354;DHT22;55274;43.060;25.618;2023-08-31T13:18:25;29.60;63.20
68354;DHT22;55274;43.060;25.618;2023-08-31T13:20:52;29.40;62.00
68354;DHT22;55274;43.060;25.618;2023-08-31T13:23:18;29.40;63.20
68354;DHT22;55274;43.060;25.618;2023-08-31T13:25:44;29.50;63.70
68354;DHT22;55274;43.060;25.618;2023-08-31T13:28:11;29.60;62.00
68354;DHT22;55274;43.060;25.618;2023-08-31T13:30:36;29.70;62.90
68354;DHT22;55274;43.060;25.618;2023-08-31T13:33:02;29.90;61.90
68354;DHT22;55274;43.060;25.618;2023-08-31T13:35:30;29.90;61.80
68354;DHT22;55274;43.060;25.618;2023-08-31T13:37:56;29.60;62.10
68354;DHT22;55274;43.060;25.618;2023-08-31T13:40:22;29.40;62.00
68354;DHT22;55274;43.060;25.618;2023-08-31T13:42:55;29.50;61.60
68354;DHT22;55274;43.060;25.618;2023-08-31T13:45:27;29.40;61.80
68354;DHT22;55274;43.060;25.618;2023-08-31T13:47:53;29.30;60.60
68354;DHT22;55274;43.060;25.618;2023-08-31T13:50:19;29.20;60.60
68354;DHT22;55274;43.060;25.618;2023-08-31T13:52:45;29.10;61.30
68354;DHT22;55274;43.060;25.618;2023-08-31T13:55:11;29.00;62.50
68354;DHT22;55274;43.060;25.618;2023-08-31T13:57:38;29.00;63.60
68354;DHT22;55274;43.060;25.618;2023-08-31T14:00:05;28.80;64.30
68354;DHT22;55274;43.060;25.618;2023-08-31T14:02:34;28.60;64.90
68354;DHT22;55274;43.060;25.618;2023-08-31T14:05:01;28.60;65.90
68354;DHT22;55274;43.060;25.618;2023-08-31T14:07:27;28.50;67.80
68354;DHT22;55274;43.060;25.618;2023-08-31T14:09:53;28.30;68.70
68354;DHT22;55274;43.060;25.618;2023-08-31T14:12:19;28.30;69.70
68354;DHT22;55274;43.060;25.618;2023-08-31T14:14:45;28.20;70.60
68354;DHT22;55274;43.060;25.618;2023-08-31T14:17:12;28.10;71.90
68354;DHT22;55274;43.060;25.618;2023-08-31T14:19:38;28.00;72.50
68354;DHT22;55274;43.060;25.618;2023-08-31T14:22:05;28.00;72.80
68354;DHT22;55274;43.060;25.618;2023-08-31T14:24:30;28.00;72.90
68354;DHT22;55274;43.060;25.618;2023-08-31T14:26:56;28.00;72.60
68354;DHT22;55274;43.060;25.618;2023-08-31T14:29:23;27.90;72.60
68354;DHT22;55274;43.060;25.618;2023-08-31T14:31:49;27.80;72.70
68354;DHT22;55274;43.060;25.618;2023-08-31T14:34:15;27.80;72.80
68354;DHT22;55274;43.060;25.618;2023-08-31T14:36:41;27.70;73.20
68354;DHT22;55274;43.060;25.618;2023-08-31T14:39:06;27.70;73.60
68354;DHT22;55274;43.060;25.618;2023-08-31T14:41:32;27.70;75.20
68354;DHT22;55274;43.060;25.618;2023-08-31T14:43:58;27.50;75.30
68354;DHT22;55274;43.060;25.618;2023-08-31T14:46:23;27.40;77.60
68354;DHT22;55274;43.060;25.618;2023-08-31T14:48:50;27.20;78.60
68354;DHT22;55274;43.060;25.618;2023-08-31T14:51:16;27.20;79.00
68354;DHT22;55274;43.060;25.618;2023-08-31T14:53:42;27.20;78.30
68354;DHT22;55274;43.060;25.618;2023-08-31T14:56:08;27.10;79.00
68354;DHT22;55274;43.060;25.618;2023-08-31T14:58:34;27.10;83.70
68354;DHT22;55274;43.060;25.618;2023-08-31T15:01:00;27.10;84.40
68354;DHT22;55274;43.060;25.618;2023-08-31T15:03:26;27.00;85.90
68354;DHT22;55274;43.060;25.618;2023-08-31T15:05:52;27.00;86.30
68354;DHT22;55274;43.060;25.618;2023-08-31T15:08:18;26.90;86.00
68354;DHT22;55274;43.060;25.618;2023-08-31T15:10:43;27.00;86.70
68354;DHT22;55274;43.060;25.618;2023-08-31T15:13:09;26.90;86.30
68354;DHT22;55274;43.060;25.618;2023-08-31T15:15:35;26.90;86.10
68354;DHT22;55274;43.060;25.618;2023-08-31T15:18:01;26.90;85.80
68354;DHT22;55274;43.060;25.618;2023-08-31T15:20:27;27.00;88.30
68354;DHT22;55274;43.060;25.618;2023-08-31T15:22:53;27.00;87.20
68354;DHT22;55274;43.060;25.618;2023-08-31T15:25:19;27.00;88.50
68354;DHT22;55274;43.060;25.618;2023-08-31T15:27:45;27.00;88.50
68354;DHT22;55274;43.060;25.618;2023-08-31T15:30:11;26.90;86.60
68354;DHT22;55274;43.060;25.618;2023-08-31T15:32:37;26.90;84.80
68354;DHT22;55274;43.060;25.618;2023-08-31T15:35:04;26.90;82.40
68354;DHT22;55274;43.060;25.618;2023-08-31T15:37:30;26.90;81.70
68354;DHT22;55274;43.060;25.618;2023-08-31T15:39:56;26.90;80.40
68354;DHT22;55274;43.060;25.618;2023-08-31T15:42:26;26.90;80.70
68354;DHT22;55274;43.060;25.618;2023-08-31T15:44:51;26.90;80.40
68354;DHT22;55274;43.060;25.618;2023-08-31T15:47:21;26.80;81.60
68354;DHT22;55274;43.060;25.618;2023-08-31T15:49:50;26.80;82.30